Silver Star, Montana
Current Conditions -  °F | °C
As of 12:53 PM on Thursday 23 Oct 2014 (Local Time) from KBTM Reporting Station
Broken Clouds Broken Clouds  
Wind Chill: 54°   Ceiling: 10000
Heat Index: 54°   Visibility: 10mi
Dew Point: 34°   Wind: 5mph
Humidity: 47%   Direction: 200°SSW
Pressure: 30.01"   Gusts: NA
Location:  45.69°N, 112.28°W
Report Text: KBTM 231853Z AUTO 20004KT 10SM BKN100 12/01 A3001 RMK AO2 SLP139 T01220011
Loading
Personal Weather Stations






























Interactive Weather Map New forecast layout! Learn more

10-Day Weather Forecast

Advertisements
Track Severe Weather on mobile